createdAt,value
2022-10-08T00:01:42.206Z,0.60
2022-10-08T00:04:48.816Z,0.20
2022-10-08T00:07:55.979Z,0.60
2022-10-08T00:11:04.311Z,0.30
2022-10-08T00:14:12.471Z,0.63
2022-10-08T00:17:19.005Z,0.60
2022-10-08T00:20:25.531Z,0.82
2022-10-08T00:23:33.599Z,0.40
2022-10-08T00:26:43.824Z,0.40
2022-10-08T00:29:52.276Z,0.20
2022-10-08T00:33:00.014Z,0.30
2022-10-08T00:36:07.952Z,0.20
2022-10-08T00:39:16.051Z,0.25
2022-10-08T00:42:22.613Z,0.20
2022-10-08T00:45:30.690Z,0.43
2022-10-08T00:48:37.120Z,0.30
2022-10-08T00:51:45.950Z,0.28
2022-10-08T00:54:52.801Z,0.20
2022-10-08T00:58:02.801Z,0.20
2022-10-08T01:01:11.444Z,0.20
2022-10-08T01:04:18.207Z,0.40
2022-10-08T01:07:28.102Z,0.20
2022-10-08T01:10:40.223Z,0.40
2022-10-08T01:13:51.363Z,0.30
2022-10-08T01:17:07.619Z,0.20
2022-10-08T01:20:33.895Z,0.20
2022-10-08T01:23:58.047Z,0.20
2022-10-08T01:27:08.182Z,0.20
2022-10-08T01:30:18.225Z,0.20
2022-10-08T01:33:28.480Z,0.32
2022-10-08T01:36:39.051Z,0.20
2022-10-08T01:39:46.275Z,0.20
2022-10-08T01:42:54.081Z,0.65
2022-10-08T01:46:08.799Z,0.20
2022-10-08T01:49:19.128Z,0.30
2022-10-08T01:52:28.467Z,0.20
2022-10-08T01:55:37.576Z,0.30
2022-10-08T01:58:50.181Z,0.40
2022-10-08T02:02:01.768Z,0.47
2022-10-08T02:05:09.027Z,0.20
2022-10-08T02:08:15.468Z,0.32
2022-10-08T02:11:22.149Z,0.28
2022-10-08T02:14:33.183Z,0.73
2022-10-08T02:17:48.670Z,0.20
2022-10-08T02:20:59.093Z,0.30
2022-10-08T02:24:13.272Z,0.63
2022-10-08T02:27:24.108Z,0.30
2022-10-08T02:30:38.669Z,0.50
2022-10-08T02:33:50.108Z,0.20
2022-10-08T02:37:01.698Z,0.20
2022-10-08T02:40:11.661Z,0.50
2022-10-08T02:43:21.783Z,0.20
2022-10-08T02:46:30.835Z,0.50
2022-10-08T02:49:42.461Z,0.20
2022-10-08T02:52:51.055Z,0.50
2022-10-08T02:56:07.161Z,0.30
2022-10-08T02:59:14.496Z,0.25
2022-10-08T03:02:27.785Z,0.30
2022-10-08T03:05:35.917Z,0.28
2022-10-08T03:08:46.262Z,0.30
2022-10-08T03:11:52.966Z,0.38
2022-10-08T03:15:00.090Z,0.20
2022-10-08T03:18:08.880Z,0.20
2022-10-08T03:21:17.360Z,0.40
2022-10-08T03:24:24.496Z,0.20
2022-10-08T03:27:31.204Z,0.20
2022-10-08T03:30:38.071Z,0.38
2022-10-08T03:33:44.735Z,0.45
2022-10-08T03:36:52.830Z,0.30
2022-10-08T03:39:59.521Z,0.52
2022-10-08T03:43:06.154Z,0.30
2022-10-08T03:46:13.974Z,0.30
2022-10-08T03:49:20.713Z,0.30
2022-10-08T03:52:28.763Z,0.90
2022-10-08T03:55:36.932Z,0.25
2022-10-08T03:58:43.946Z,0.20
2022-10-08T04:01:50.762Z,0.20
2022-10-08T04:04:57.466Z,0.30
2022-10-08T04:08:05.739Z,0.65
2022-10-08T04:11:13.761Z,0.30
2022-10-08T04:14:20.516Z,0.43
2022-10-08T04:17:27.194Z,0.30
2022-10-08T04:20:34.193Z,0.20
2022-10-08T04:23:43.121Z,0.20
2022-10-08T04:26:49.828Z,0.30
2022-10-08T04:29:56.318Z,0.20
2022-10-08T04:33:03.274Z,0.45
2022-10-08T04:36:10.877Z,0.25
2022-10-08T04:39:19.131Z,0.20
2022-10-08T04:42:25.486Z,0.65
2022-10-08T04:45:32.226Z,0.30
2022-10-08T04:48:39.709Z,0.20
2022-10-08T04:51:46.592Z,0.40
2022-10-08T04:54:54.553Z,0.82
2022-10-08T04:58:01.623Z,1.10
2022-10-08T05:01:10.288Z,0.35
2022-10-08T05:04:17.128Z,0.77
2022-10-08T05:07:24.417Z,0.35
2022-10-08T05:10:32.342Z,1.13
2022-10-08T05:13:39.353Z,0.65
2022-10-08T05:16:45.968Z,0.55
2022-10-08T05:19:52.846Z,0.17
2022-10-08T05:22:59.769Z,1.65
2022-10-08T05:26:15.614Z,0.45
2022-10-08T05:29:22.050Z,0.68
2022-10-08T05:32:28.902Z,0.57
2022-10-08T05:35:38.449Z,0.68
2022-10-08T05:38:44.975Z,1.73
2022-10-08T05:41:54.107Z,0.52
2022-10-08T05:45:00.923Z,0.40
2022-10-08T05:48:07.314Z,1.30
2022-10-08T05:51:15.551Z,0.82
2022-10-08T05:54:22.361Z,0.85
2022-10-08T05:57:30.659Z,0.60
2022-10-08T06:00:37.057Z,0.85
2022-10-08T06:03:44.089Z,1.92
2022-10-08T06:06:50.360Z,3.30
2022-10-08T06:09:57.231Z,1.95
2022-10-08T06:13:05.153Z,0.88
2022-10-08T06:16:12.958Z,0.80
2022-10-08T06:19:19.473Z,1.63
2022-10-08T06:22:26.057Z,1.60
2022-10-08T06:25:33.019Z,0.80
2022-10-08T06:28:41.223Z,1.17
2022-10-08T06:31:48.259Z,0.90
2022-10-08T06:34:54.705Z,1.42
2022-10-08T06:38:01.541Z,1.52
2022-10-08T06:41:08.033Z,0.80
2022-10-08T06:44:19.241Z,0.00
2022-10-08T06:47:25.584Z,0.68
2022-10-08T06:50:32.552Z,0.32
2022-10-08T06:53:40.128Z,0.77
2022-10-08T06:56:47.700Z,0.77
2022-10-08T06:59:58.043Z,0.65
2022-10-08T07:03:04.896Z,0.28
2022-10-08T07:06:13.336Z,0.28
2022-10-08T07:09:19.796Z,0.13
2022-10-08T07:12:26.383Z,1.13
2022-10-08T07:15:34.545Z,0.10
2022-10-08T07:18:41.839Z,0.30
2022-10-08T07:21:48.481Z,0.22
2022-10-08T07:24:55.402Z,0.00
2022-10-08T07:28:02.119Z,0.00
2022-10-08T07:31:14.515Z,0.13
2022-10-08T07:34:21.453Z,0.15
2022-10-08T07:37:27.960Z,0.00
2022-10-08T07:40:36.405Z,0.10
2022-10-08T07:43:43.283Z,0.10
2022-10-08T07:46:51.902Z,0.25
2022-10-08T07:49:58.264Z,0.00
2022-10-08T07:53:04.945Z,0.35
2022-10-08T07:56:13.604Z,0.00
2022-10-08T07:59:20.227Z,0.20
2022-10-08T08:02:28.541Z,0.00
2022-10-08T08:05:36.100Z,0.00
2022-10-08T08:08:45.321Z,0.00
2022-10-08T08:11:51.823Z,0.00
2022-10-08T08:14:58.599Z,0.00
2022-10-08T08:18:06.649Z,0.00
2022-10-08T08:21:14.933Z,0.00
2022-10-08T08:24:24.043Z,0.00
2022-10-08T08:27:31.344Z,0.00
2022-10-08T08:30:38.162Z,0.00
2022-10-08T08:33:50.918Z,0.00
2022-10-08T08:36:57.480Z,0.00
2022-10-08T08:40:04.911Z,0.00
2022-10-08T08:43:12.087Z,0.10
2022-10-08T08:46:20.719Z,0.17
2022-10-08T08:49:34.747Z,0.03
2022-10-08T08:52:43.307Z,0.00
2022-10-08T08:55:52.063Z,0.00
2022-10-08T08:59:01.868Z,0.00
2022-10-08T09:02:17.761Z,0.20
2022-10-08T09:05:27.229Z,0.05
2022-10-08T09:08:37.165Z,0.10
2022-10-08T09:11:44.185Z,0.10
2022-10-08T09:14:54.581Z,0.20
2022-10-08T09:18:03.001Z,0.00
2022-10-08T09:21:11.012Z,0.00
2022-10-08T09:24:18.592Z,0.00
2022-10-08T09:27:25.308Z,0.17
2022-10-08T09:30:35.097Z,0.20
2022-10-08T09:33:42.229Z,0.05
2022-10-08T09:36:52.255Z,0.00
2022-10-08T09:40:18.545Z,0.00
2022-10-08T09:43:25.624Z,0.00
2022-10-08T09:46:34.099Z,0.00
2022-10-08T09:49:40.926Z,0.17
2022-10-08T09:52:50.618Z,0.00
2022-10-08T09:56:00.503Z,0.28
2022-10-08T09:59:07.611Z,0.00
2022-10-08T10:02:32.899Z,0.15
2022-10-08T10:05:39.749Z,0.00
2022-10-08T10:08:56.120Z,0.00
2022-10-08T10:12:05.479Z,0.20
2022-10-08T10:15:16.272Z,0.00
2022-10-08T10:18:26.241Z,0.00
2022-10-08T10:21:37.969Z,0.00
2022-10-08T10:24:53.934Z,0.00
2022-10-08T10:28:03.934Z,0.00
2022-10-08T10:31:13.464Z,0.00
2022-10-08T10:34:25.644Z,0.00
2022-10-08T10:37:44.958Z,0.10
2022-10-08T10:41:07.369Z,0.15
2022-10-08T10:44:15.385Z,0.00
2022-10-08T10:47:25.314Z,0.05
2022-10-08T10:50:39.300Z,0.00
2022-10-08T10:53:54.471Z,0.00
2022-10-08T10:57:06.339Z,0.00
2022-10-08T11:00:19.124Z,0.03
2022-10-08T11:03:29.640Z,0.10
2022-10-08T11:07:03.000Z,0.17
2022-10-08T11:10:13.869Z,0.13
2022-10-08T11:13:36.875Z,0.00
2022-10-08T11:16:57.055Z,0.10
2022-10-08T11:20:19.424Z,0.00
2022-10-08T11:23:37.301Z,0.52
2022-10-08T11:26:49.268Z,0.00
2022-10-08T11:30:03.603Z,0.00
2022-10-08T11:33:12.887Z,0.17
2022-10-08T11:36:25.175Z,0.10
2022-10-08T11:39:38.233Z,0.00
2022-10-08T11:42:50.581Z,0.00
2022-10-08T11:46:28.664Z,0.10
2022-10-08T11:49:51.219Z,0.13
2022-10-08T11:53:01.232Z,0.00
2022-10-08T11:56:10.798Z,0.00
2022-10-08T11:59:34.172Z,0.05
2022-10-08T12:02:44.157Z,0.30
2022-10-08T12:05:53.308Z,0.00
2022-10-08T12:09:00.992Z,0.08
2022-10-08T12:12:14.315Z,0.08
2022-10-08T12:15:53.054Z,0.10
2022-10-08T12:19:01.361Z,0.10
2022-10-08T12:22:42.851Z,0.10
2022-10-08T12:26:10.168Z,0.00
2022-10-08T12:29:28.261Z,0.20
2022-10-08T12:32:53.110Z,0.00
2022-10-08T12:36:05.048Z,0.00
2022-10-08T12:39:19.383Z,0.00
2022-10-08T12:42:29.444Z,0.43
2022-10-08T12:45:45.074Z,0.10
2022-10-08T12:48:53.751Z,0.00
2022-10-08T12:52:05.556Z,0.00
2022-10-08T12:55:16.551Z,0.00
2022-10-08T12:58:26.020Z,0.00
2022-10-08T13:01:33.205Z,0.00
2022-10-08T13:04:47.595Z,0.00
2022-10-08T13:07:55.673Z,0.00
2022-10-08T13:11:05.091Z,0.00
2022-10-08T13:14:27.135Z,0.00
2022-10-08T13:17:35.725Z,0.00
2022-10-08T13:20:56.861Z,0.00
2022-10-08T13:24:21.053Z,0.38
2022-10-08T13:27:29.189Z,0.10
2022-10-08T13:30:36.552Z,0.20
2022-10-08T13:33:43.394Z,0.17
2022-10-08T13:36:50.580Z,0.20
2022-10-08T13:39:59.966Z,0.00
2022-10-08T13:43:07.893Z,0.30
2022-10-08T13:46:14.691Z,0.30
2022-10-08T13:49:22.937Z,0.00
2022-10-08T13:52:32.096Z,0.00
2022-10-08T13:55:43.055Z,0.10
2022-10-08T13:58:49.811Z,0.75
2022-10-08T14:01:56.537Z,0.00
2022-10-08T14:05:03.385Z,0.00
2022-10-08T14:08:13.902Z,0.00
2022-10-08T14:11:22.049Z,0.10
2022-10-08T14:14:29.263Z,0.10
2022-10-08T14:17:35.980Z,0.00
2022-10-08T14:20:42.964Z,0.17
2022-10-08T14:23:49.600Z,0.25
2022-10-08T14:26:58.116Z,0.00
2022-10-08T14:30:05.884Z,0.00
2022-10-08T14:33:12.811Z,0.20
2022-10-08T14:36:21.558Z,0.00
2022-10-08T14:39:28.214Z,0.00
2022-10-08T14:42:36.023Z,0.08
2022-10-08T14:45:42.840Z,0.00
2022-10-08T14:48:49.939Z,0.10
2022-10-08T14:51:56.684Z,0.00
2022-10-08T14:55:04.017Z,0.05
2022-10-08T14:58:12.389Z,0.00
2022-10-08T15:01:19.548Z,0.30
2022-10-08T15:04:26.639Z,0.10
2022-10-08T15:07:33.670Z,0.10
2022-10-08T15:10:41.184Z,0.15
2022-10-08T15:13:49.032Z,0.30
2022-10-08T15:16:55.888Z,0.38
2022-10-08T15:20:03.273Z,0.10
2022-10-08T15:23:10.761Z,0.00
2022-10-08T15:26:19.080Z,0.10
2022-10-08T15:29:27.594Z,0.10
2022-10-08T15:32:34.471Z,0.30
2022-10-08T15:35:42.091Z,0.10
2022-10-08T15:38:49.801Z,0.10
2022-10-08T15:41:57.330Z,0.10
2022-10-08T15:45:05.737Z,0.00
2022-10-08T15:48:13.230Z,0.10
2022-10-08T15:51:19.897Z,0.10
2022-10-08T15:54:26.731Z,0.10
2022-10-08T15:57:33.429Z,0.10
2022-10-08T16:00:41.551Z,0.10
2022-10-08T16:03:49.736Z,0.10
2022-10-08T16:06:56.100Z,0.20
2022-10-08T16:10:03.163Z,0.30
2022-10-08T16:13:10.102Z,0.10
2022-10-08T16:16:18.838Z,0.10
2022-10-08T16:19:26.830Z,0.00
2022-10-08T16:22:33.219Z,0.10
2022-10-08T16:25:44.810Z,0.10
2022-10-08T16:28:55.095Z,0.52
2022-10-08T16:32:03.417Z,0.20
2022-10-08T16:35:10.013Z,0.20
2022-10-08T16:38:16.777Z,0.10
2022-10-08T16:41:24.885Z,0.15
2022-10-08T16:44:31.992Z,0.20
2022-10-08T16:47:40.088Z,0.30
2022-10-08T16:50:46.793Z,0.20
2022-10-08T16:53:54.775Z,0.30
2022-10-08T16:57:01.304Z,0.25
2022-10-08T17:00:09.019Z,0.03
2022-10-08T17:03:17.332Z,0.17
2022-10-08T17:06:25.359Z,0.10
2022-10-08T17:09:32.684Z,0.68
2022-10-08T17:12:38.895Z,0.35
2022-10-08T17:15:45.750Z,0.40
2022-10-08T17:18:55.227Z,0.10
2022-10-08T17:22:02.018Z,0.08
2022-10-08T17:25:10.252Z,0.10
2022-10-08T17:28:17.234Z,0.38
2022-10-08T17:31:25.782Z,0.20
2022-10-08T17:34:33.658Z,0.20
2022-10-08T17:37:40.164Z,0.40
2022-10-08T17:40:46.858Z,0.10
2022-10-08T17:43:55.874Z,0.20
2022-10-08T17:47:02.348Z,0.10
2022-10-08T17:50:10.357Z,0.20
2022-10-08T17:53:17.053Z,0.10
2022-10-08T17:56:24.945Z,0.10
2022-10-08T17:59:31.574Z,0.20
2022-10-08T18:02:38.610Z,0.40
2022-10-08T18:05:56.648Z,0.20
2022-10-08T18:09:05.464Z,0.30
2022-10-08T18:12:12.055Z,0.68
2022-10-08T18:15:18.902Z,0.10
2022-10-08T18:18:25.738Z,0.60
2022-10-08T18:21:34.105Z,0.30
2022-10-08T18:24:41.283Z,0.40
2022-10-08T18:27:48.186Z,0.45
2022-10-08T18:30:55.227Z,0.10
2022-10-08T18:34:05.170Z,0.25
2022-10-08T18:37:13.594Z,0.30
2022-10-08T18:40:20.504Z,0.20
2022-10-08T18:43:27.112Z,0.38
2022-10-08T18:46:35.397Z,0.10
2022-10-08T18:49:42.219Z,0.17
2022-10-08T18:52:50.566Z,0.20
2022-10-08T18:55:57.651Z,0.35
2022-10-08T18:59:05.981Z,0.32
2022-10-08T19:02:12.932Z,0.57
2022-10-08T19:05:19.945Z,0.10
2022-10-08T19:08:28.334Z,0.10
2022-10-08T19:11:41.841Z,0.50
2022-10-08T19:14:50.843Z,0.20
2022-10-08T19:17:57.807Z,0.45
2022-10-08T19:21:08.455Z,0.45
2022-10-08T19:24:18.737Z,0.30
2022-10-08T19:27:25.761Z,0.40
2022-10-08T19:30:34.367Z,0.30
2022-10-08T19:33:41.559Z,0.35
2022-10-08T19:36:48.401Z,0.30
2022-10-08T19:39:56.342Z,0.15
2022-10-08T19:43:03.499Z,0.35
2022-10-08T19:46:10.571Z,0.30
2022-10-08T19:49:19.346Z,0.10
2022-10-08T19:52:26.282Z,0.20
2022-10-08T19:55:37.835Z,0.20
2022-10-08T19:58:48.613Z,0.22
2022-10-08T20:01:56.007Z,0.20
2022-10-08T20:05:02.987Z,0.13
2022-10-08T20:08:09.591Z,0.50
2022-10-08T20:11:18.753Z,0.20
2022-10-08T20:14:25.370Z,0.28
2022-10-08T20:17:31.920Z,0.20
2022-10-08T20:20:38.709Z,0.10
2022-10-08T20:23:45.419Z,0.10
2022-10-08T20:26:53.616Z,0.15
2022-10-08T20:30:00.553Z,0.10
2022-10-08T20:33:07.319Z,0.25
2022-10-08T20:36:15.685Z,0.30
2022-10-08T20:39:23.369Z,0.40
2022-10-08T20:42:32.310Z,0.50
2022-10-08T20:45:38.843Z,0.40
2022-10-08T20:48:46.713Z,0.10
2022-10-08T20:51:53.696Z,0.10
2022-10-08T20:55:00.313Z,0.20
2022-10-08T20:58:08.496Z,0.45
2022-10-08T21:01:17.400Z,0.60
2022-10-08T21:04:24.085Z,0.47
2022-10-08T21:07:30.755Z,0.20
2022-10-08T21:10:37.839Z,0.52
2022-10-08T21:13:46.212Z,0.47
2022-10-08T21:16:53.711Z,0.55
2022-10-08T21:20:00.405Z,0.20
2022-10-08T21:23:07.364Z,0.43
2022-10-08T21:26:16.239Z,0.63
2022-10-08T21:29:24.077Z,0.35
2022-10-08T21:32:30.753Z,0.20
2022-10-08T21:35:37.771Z,0.30
2022-10-08T21:38:44.519Z,0.10
2022-10-08T21:41:52.463Z,0.20
2022-10-08T21:45:00.238Z,0.10
2022-10-08T21:48:07.067Z,0.10
2022-10-08T21:51:16.145Z,0.73
2022-10-08T21:54:23.254Z,0.20
2022-10-08T21:57:30.147Z,0.20
2022-10-08T22:00:38.850Z,0.50
2022-10-08T22:03:45.987Z,0.22
2022-10-08T22:06:53.920Z,0.17
2022-10-08T22:10:00.840Z,0.20
2022-10-08T22:13:07.414Z,0.10
2022-10-08T22:16:17.074Z,0.10
2022-10-08T22:19:23.889Z,0.20
2022-10-08T22:22:30.498Z,0.20
2022-10-08T22:25:37.481Z,0.15
2022-10-08T22:28:44.544Z,0.13
2022-10-08T22:31:52.545Z,0.20
2022-10-08T22:34:59.157Z,0.10
2022-10-08T22:38:05.851Z,0.25
2022-10-08T22:41:14.507Z,0.20
2022-10-08T22:44:22.097Z,0.20
2022-10-08T22:47:30.140Z,0.10
2022-10-08T22:50:38.150Z,0.10
2022-10-08T22:53:44.909Z,0.30
2022-10-08T22:56:51.353Z,0.30
2022-10-08T22:59:58.231Z,0.15
2022-10-08T23:03:06.518Z,0.20
2022-10-08T23:06:15.757Z,0.10
2022-10-08T23:09:22.008Z,0.20
2022-10-08T23:12:28.989Z,0.20
2022-10-08T23:15:35.614Z,0.20
2022-10-08T23:18:45.344Z,0.17
2022-10-08T23:21:51.995Z,0.22
2022-10-08T23:24:58.941Z,0.20
2022-10-08T23:28:05.944Z,0.30
2022-10-08T23:31:14.454Z,0.40
2022-10-08T23:34:22.816Z,0.20
2022-10-08T23:37:29.633Z,0.80
2022-10-08T23:40:36.893Z,0.80
2022-10-08T23:43:45.437Z,0.20
2022-10-08T23:46:52.096Z,0.20
2022-10-08T23:50:00.269Z,0.20
2022-10-08T23:53:07.096Z,0.20
2022-10-08T23:56:14.723Z,0.20
2022-10-08T23:59:21.234Z,0.10
